Terminal Aerodrome Forecast
Issued by NWS Paducah, KY

Home | Current Version | Previous Version | Graphics & Text | Print | Product List | Glossary On
Versions: 1 2 3 4 5 6 7 8 9 10 11 12 13 14 15 16 17 18 19 20 21
000
FTUS43 KPAH 271442 AAB
TAFPAH
TAF AMD
KPAH 271442Z 2715/2812 16008KT P6SM SCT070 BKN150
     FM271900 17008G15KT P6SM VCTS BKN050CB
      TEMPO 2719/2723 3SM -TSRA BR BKN035CB
     FM280000 18006KT P6SM SCT050 BKN150=

USA.gov is the U.S. government's official web portal to all federal, state and local government web resources and services.